D/T METAR WX W/DIR W/SPE G/SPE TEMP DEWP
16/01/19 03:20 EGGW 160320Z AUTO 21012KT 9999 OVC010 08/06 Q1009 SSW (210°) 13.8mph 8°C 6°C
16/01/19 02:50 EGGW 160250Z AUTO 22012KT 9999 OVC011 08/06 Q1009 SW (220°) 13.8mph 8°C 6°C
16/01/19 02:20 EGGW 160220Z AUTO 22011KT 9999 BKN011 OVC030 07/06 Q1010 SW (220°) 12.7mph 7°C 6°C
16/01/19 01:50 EGGW 160150Z AUTO 21011KT 9999 SCT010 OVC028 07/06 Q1010 SSW (210°) 12.7mph 7°C 6°C
16/01/19 01:20 EGGW 160120Z AUTO 22009KT 9999 FEW010 BKN029 07/05 Q1011 SW (220°) 10.4mph 7°C 5°C
16/01/19 00:50 EGGW 160050Z AUTO 22011KT 9999 BKN010 07/05 Q1011 SW (220°) 12.7mph 7°C 5°C
16/01/19 00:20 EGGW 160020Z AUTO 21010KT 9999 BKN010 OVC026 07/05 Q1011 SSW (210°) 11.5mph 7°C 5°C
15/01/19 23:50 EGGW 152350Z AUTO 22012KT 9999 FEW012 OVC024 07/05 Q1012 SW (220°) 13.8mph 7°C 5°C
15/01/19 23:20 EGGW 152320Z AUTO 21012KT 9999 OVC026 07/05 Q1012 SSW (210°) 13.8mph 7°C 5°C
15/01/19 22:50 EGGW 152250Z AUTO 22010KT 9999 BKN024 OVC028 07/05 Q1012 SW (220°) 11.5mph 7°C 5°C
15/01/19 22:20 EGGW 152220Z AUTO 22011KT 9999 OVC019 07/05 Q1013 SW (220°) 12.7mph 7°C 5°C
15/01/19 21:50 EGGW 152150Z AUTO 22010KT 9999 OVC018 07/05 Q1013 SW (220°) 11.5mph 7°C 5°C
15/01/19 21:20 EGGW 152120Z AUTO 22009KT 9999 OVC017 07/06 Q1013 SW (220°) 10.4mph 7°C 6°C
15/01/19 20:50 EGGW 152050Z AUTO 21008KT 9999 BKN017 OVC023 07/06 Q1014 SSW (210°) 9.2mph 7°C 6°C
15/01/19 19:50 EGGW 151950Z 22008KT 9999 BKN011 OVC023 08/06 Q1014 SW (220°) 9.2mph 8°C 6°C
15/01/19 19:20 EGGW 151920Z AUTO 23013KT 9999 SCT015 OVC024 08/06 Q1015 SW (230°) 15.0mph 8°C 6°C
15/01/19 18:50 EGGW 151850Z AUTO 24013KT 9999 SCT013 BKN017 OVC027 08/06 Q1015 WSW (240°) 15.0mph 8°C 6°C
15/01/19 18:20 EGGW 151820Z AUTO 23010KT 9999 BKN007 OVC026 08/06 Q1015 SW (230°) 11.5mph 8°C 6°C
15/01/19 17:50 EGGW 151750Z AUTO 23011KT 9999 BKN008 BKN011 OVC025 08/06 Q1015 SW (230°) 12.7mph 8°C 6°C
15/01/19 17:20 EGGW 151720Z 21006KT 9999 FEW015 BKN029 08/06 Q1015 SSW (210°) 6.9mph 8°C 6°C
15/01/19 16:50 EGGW 151650Z AUTO 22008KT 9999 FEW015 BKN029 07/06 Q1016 SW (220°) 9.2mph 7°C 6°C
15/01/19 16:20 EGGW 151620Z AUTO 22008KT 9999 SCT015 BKN028 08/05 Q1016 SW (220°) 9.2mph 8°C 5°C
15/01/19 15:50 EGGW 151550Z AUTO 23010KT 9999 FEW016 OVC021 08/05 Q1016 SW (230°) 11.5mph 8°C 5°C
15/01/19 15:20 EGGW 151520Z AUTO 25009KT 9999 OVC032 08/06 Q1016 WSW (250°) 10.4mph 8°C 6°C
15/01/19 14:20 EGGW 151420Z AUTO 25013KT 9999 BKN011 OVC034 08/06 Q1017 WSW (250°) 15.0mph 8°C 6°C
15/01/19 13:50 EGGW 151350Z AUTO 25016KT 9999 OVC010 08/06 Q1017 WSW (250°) 18.4mph 8°C 6°C
15/01/19 13:20 EGGW 151320Z AUTO 25013KT 9999 OVC009 08/06 Q1017 WSW (250°) 15.0mph 8°C 6°C
15/01/19 12:20 EGGW 151220Z AUTO 24013KT 9999 BKN010 OVC036 08/06 Q1018 WSW (240°) 15.0mph 8°C 6°C
15/01/19 11:50 EGGW 151150Z AUTO 25013KT 9999 BKN010 OVC036 08/06 Q1018 WSW (250°) 15.0mph 8°C 6°C
15/01/19 11:20 EGGW 151120Z AUTO 22008KT 9999 BKN011 BKN024 OVC029 07/05 Q1019 SW (220°) 9.2mph 7°C 5°C
15/01/19 10:50 EGGW 151050Z 22010KT 9999 BKN032 06/04 Q1019 SW (220°) 11.5mph 6°C 4°C
15/01/19 10:20 EGGW 151020Z AUTO 22007KT 9999 OVC034 06/04 Q1019 SW (220°) 8.1mph 6°C 4°C
15/01/19 09:50 EGGW 150950Z AUTO 20006KT 9999 OVC034 05/04 Q1019 SSW (200°) 6.9mph 5°C 4°C
15/01/19 09:20 EGGW 150920Z AUTO 20006KT 9999 OVC030 05/03 Q1019 SSW (200°) 6.9mph 5°C 3°C
15/01/19 08:50 EGGW 150850Z AUTO 21007KT 9999 OVC029 04/03 Q1019 SSW (210°) 8.1mph 4°C 3°C
15/01/19 08:20 EGGW 150820Z AUTO 19006KT 160V220 9999 OVC026 04/02 Q1019 S (190°) 6.9mph 4°C 2°C
15/01/19 07:50 EGGW 150750Z AUTO 21007KT 9999 OVC026 04/02 Q1019 SSW (210°) 8.1mph 4°C 2°C
15/01/19 07:20 EGGW 150720Z AUTO 24009KT 9999 OVC024 06/03 Q1019 WSW (240°) 10.4mph 6°C 3°C
15/01/19 06:20 EGGW 150620Z AUTO 25010KT 9999 OVC023 05/03 Q1020 WSW (250°) 11.5mph 5°C 3°C
15/01/19 05:50 EGGW 150550Z AUTO 25009KT 9999 OVC025 05/03 Q1020 WSW (250°) 10.4mph 5°C 3°C
15/01/19 05:20 EGGW 150520Z AUTO 25009KT 9999 BKN028 04/02 Q1020 WSW (250°) 10.4mph 4°C 2°C
15/01/19 04:50 EGGW 150450Z AUTO 25009KT 9999 NCD 03/01 Q1020 WSW (250°) 10.4mph 3°C 1°C
15/01/19 04:20 EGGW 150420Z AUTO 24008KT 9999 NCD 03/01 Q1020 WSW (240°) 9.2mph 3°C 1°C
15/01/19 03:50 EGGW 150350Z AUTO 24007KT 9999 SCT035 03/01 Q1020 WSW (240°) 8.1mph 3°C 1°C
15/01/19 03:20 EGGW 150320Z AUTO 25008KT 9999 OVC031 04/02 Q1020 WSW (250°) 9.2mph 4°C 2°C
15/01/19 02:50 EGGW 150250Z AUTO 24008KT 9999 FEW029 03/01 Q1021 WSW (240°) 9.2mph 3°C 1°C
15/01/19 02:20 EGGW 150220Z AUTO 25009KT 9999 NCD 03/01 Q1021 WSW (250°) 10.4mph 3°C 1°C
15/01/19 01:50 EGGW 150150Z AUTO 26006KT 9999 NCD 02/01 Q1021 W (260°) 6.9mph 2°C 1°C
15/01/19 01:20 EGGW 150120Z AUTO 26009KT 9999 NCD 03/01 Q1021 W (260°) 10.4mph 3°C 1°C
15/01/19 00:20 EGGW 150020Z AUTO 27008KT 9999 NCD 03/01 Q1021 W (270°) 9.2mph 3°C 1°C
14/01/19 23:50 EGGW 142350Z AUTO 26011KT 9999 NCD 03/02 Q1021 W (260°) 12.7mph 3°C 2°C
14/01/19 23:20 EGGW 142320Z AUTO 27009KT 9999 NCD 04/02 Q1022 W (270°) 10.4mph 4°C 2°C
14/01/19 22:20 EGGW 142220Z AUTO 26007KT 9999 NCD 04/02 Q1022 W (260°) 8.1mph 4°C 2°C
14/01/19 21:50 EGGW 142150Z AUTO 26009KT 9999 SCT043 05/02 Q1022 W (260°) 10.4mph 5°C 2°C
14/01/19 21:20 EGGW 142120Z AUTO 28009KT 9999 SCT042 05/02 Q1022 W (280°) 10.4mph 5°C 2°C
14/01/19 20:50 EGGW 142050Z AUTO 27008KT 9999 OVC042 06/02 Q1022 W (270°) 9.2mph 6°C 2°C
14/01/19 19:50 EGGW 141950Z AUTO 27007KT 9999 OVC045 06/03 Q1022 W (270°) 8.1mph 6°C 3°C
14/01/19 19:20 EGGW 141920Z AUTO 28008KT 9999 BKN047 06/03 Q1022 W (280°) 9.2mph 6°C 3°C
14/01/19 18:50 EGGW 141850Z AUTO 27008KT 9999 BKN049 06/03 Q1022 W (270°) 9.2mph 6°C 3°C
14/01/19 18:20 EGGW 141820Z AUTO 27008KT 9999 OVC048 06/03 Q1022 W (270°) 9.2mph 6°C 3°C
14/01/19 17:20 EGGW 141720Z AUTO 26008KT 9999 OVC048 07/04 Q1022 W (260°) 9.2mph 7°C 4°C
14/01/19 16:50 EGGW 141650Z AUTO 29008KT 9999 OVC048 07/03 Q1022 WNW (290°) 9.2mph 7°C 3°C
14/01/19 16:20 EGGW 141620Z AUTO 30010KT 9999 -RA OVC038 07/03 Q1022 -RA WNW (300°) 11.5mph 7°C 3°C
14/01/19 15:50 EGGW 141550Z AUTO 29009KT 9999 BKN045 07/03 Q1021 WNW (290°) 10.4mph 7°C 3°C
14/01/19 15:20 EGGW 141520Z AUTO 30011KT 9999 FEW028 SCT044 07/03 Q1021 WNW (300°) 12.7mph 7°C 3°C
14/01/19 14:50 EGGW 141450Z AUTO 30011KT 9999 BKN041 08/03 Q1021 WNW (300°) 12.7mph 8°C 3°C
14/01/19 14:20 EGGW 141420Z AUTO 31010KT 280V350 9999 FEW026 BKN042 08/03 Q1021 NW (310°) 11.5mph 8°C 3°C
14/01/19 13:50 EGGW 141350Z AUTO 32013KT 9999 SCT023 BKN029 OVC038 08/03 Q1021 NW (320°) 15.0mph 8°C 3°C
14/01/19 13:20 EGGW 141320Z AUTO 32014KT 9999 SCT024 BKN040 08/03 Q1021 NW (320°) 16.1mph 8°C 3°C
14/01/19 12:50 EGGW 141250Z AUTO 32011KT 9999 SCT022 OVC039 08/03 Q1020 NW (320°) 12.7mph 8°C 3°C
14/01/19 12:20 EGGW 141220Z 32014KT 9999 BKN020 OVC036 08/03 Q1020 NW (320°) 16.1mph 8°C 3°C
14/01/19 11:50 EGGW 141150Z AUTO 31012KT 9999 BKN018 OVC040 08/04 Q1020 NW (310°) 13.8mph 8°C 4°C
14/01/19 11:20 EGGW 141120Z AUTO 31013KT 9999 OVC037 07/04 Q1020 NW (310°) 15.0mph 7°C 4°C
14/01/19 10:50 EGGW 141050Z AUTO 32013KT 9999 BKN036 07/04 Q1020 NW (320°) 15.0mph 7°C 4°C
14/01/19 10:20 EGGW 141020Z AUTO 31013KT 9999 OVC034 07/04 Q1020 NW (310°) 15.0mph 7°C 4°C
14/01/19 09:50 EGGW 140950Z 30012KT 9999 BKN035 07/04 Q1019 WNW (300°) 13.8mph 7°C 4°C
14/01/19 09:20 EGGW 140920Z 30010KT CAVOK 06/03 Q1019 WNW (300°) 11.5mph 6°C 3°C
14/01/19 08:50 EGGW 140850Z AUTO 30013KT 9999 FEW022 06/03 Q1019 WNW (300°) 15.0mph 6°C 3°C
14/01/19 08:20 EGGW 140820Z AUTO 31011KT 9999 SCT019 06/03 Q1018 NW (310°) 12.7mph 6°C 3°C
14/01/19 07:50 EGGW 140750Z AUTO 31014KT 9999 FEW021 06/03 Q1018 NW (310°) 16.1mph 6°C 3°C
14/01/19 07:20 EGGW 140720Z AUTO 31013KT 9999 NCD 06/03 Q1018 NW (310°) 15.0mph 6°C 3°C
14/01/19 06:50 EGGW 140650Z AUTO 31014KT 9999 NCD 06/03 Q1017 NW (310°) 16.1mph 6°C 3°C
14/01/19 06:20 EGGW 140620Z AUTO 31015KT 9999 NCD 06/03 Q1017 NW (310°) 17.3mph 6°C 3°C
14/01/19 05:50 EGGW 140550Z AUTO 31017KT 9999 NCD 06/03 Q1017 NW (310°) 19.6mph 6°C 3°C
14/01/19 05:20 EGGW 140520Z AUTO 31016KT 9999 NCD 06/03 Q1016 NW (310°) 18.4mph 6°C 3°C
14/01/19 04:50 EGGW 140450Z AUTO 31015KT 9999 BKN023 07/03 Q1016 NW (310°) 17.3mph 7°C 3°C
14/01/19 04:20 EGGW 140420Z AUTO 31016KT 9999 BKN023 07/03 Q1016 NW (310°) 18.4mph 7°C 3°C
14/01/19 03:50 EGGW 140350Z AUTO 30016KT 9999 SCT026 07/03 Q1016 WNW (300°) 18.4mph 7°C 3°C
14/01/19 03:20 EGGW 140320Z AUTO 31015KT 9999 BKN026 07/03 Q1015 NW (310°) 17.3mph 7°C 3°C
14/01/19 02:50 EGGW 140250Z AUTO 30015KT 9999 BKN025 07/03 Q1015 WNW (300°) 17.3mph 7°C 3°C
14/01/19 01:50 EGGW 140150Z AUTO 29013KT 9999 BKN025 OVC030 07/03 Q1014 WNW (290°) 15.0mph 7°C 3°C
14/01/19 01:20 EGGW 140120Z AUTO 31018KT 9999 SCT025 07/03 Q1014 NW (310°) 20.7mph 7°C 3°C
14/01/19 00:50 EGGW 140050Z AUTO 30019G29KT 9999 SCT026 BKN031 07/02 Q1014 WNW (300°) 21.9mph 33.4mph 7°C 2°C
14/01/19 00:20 EGGW 140020Z AUTO 30017KT 9999 BKN030 08/02 Q1014 WNW (300°) 19.6mph 8°C 2°C
13/01/19 23:50 EGGW 132350Z AUTO 31018KT 9999 BKN032 08/02 Q1014 NW (310°) 20.7mph 8°C 2°C
13/01/19 23:20 EGGW 132320Z AUTO 31015KT 9999 BKN034 08/03 Q1013 NW (310°) 17.3mph 8°C 3°C
13/01/19 22:20 EGGW 132220Z AUTO 31015G25KT 9999 -RA SCT032 BKN039 BKN046 08/03 Q1013 -RA NW (310°) 17.3mph 28.8mph 8°C 3°C
13/01/19 21:50 EGGW 132150Z AUTO 30014KT 9999 FEW035 BKN044 08/02 Q1013 WNW (300°) 16.1mph 8°C 2°C
13/01/19 20:50 EGGW 132050Z AUTO 32012KT 9999 BKN032 BKN041 08/03 Q1012 NW (320°) 13.8mph 8°C 3°C
13/01/19 20:20 EGGW 132020Z AUTO 31022KT 9999 SCT033 BKN040 09/03 Q1012 NW (310°) 25.3mph 9°C 3°C
13/01/19 19:50 EGGW 131950Z AUTO 31019KT 9999 FEW035 SCT043 09/03 Q1012 NW (310°) 21.9mph 9°C 3°C
13/01/19 19:20 EGGW 131920Z AUTO 31021KT 9999 SCT039 BKN047 10/04 Q1011 NW (310°) 24.2mph 10°C 4°C
13/01/19 18:50 EGGW 131850Z 32022KT 9999 OVC035 10/04 Q1011 NW (320°) 25.3mph 10°C 4°C
13/01/19 18:20 EGGW 131820Z AUTO 29014KT 9999 BKN034 OVC043 10/07 Q1010 WNW (290°) 16.1mph 10°C 7°C
13/01/19 17:50 EGGW 131750Z AUTO 28015KT 9999 BKN035 BKN045 10/07 Q1010 W (280°) 17.3mph 10°C 7°C
13/01/19 17:20 EGGW 131720Z AUTO 28016KT 9999 FEW033 BKN040 10/07 Q1010 W (280°) 18.4mph 10°C 7°C
13/01/19 16:50 EGGW 131650Z AUTO 28017KT 9999 BKN019 BKN026 OVC047 10/07 Q1010 W (280°) 19.6mph 10°C 7°C
13/01/19 16:20 EGGW 131620Z 28016KT 9999 BKN018 BKN024 11/07 Q1010 W (280°) 18.4mph 11°C 7°C
13/01/19 15:50 EGGW 131550Z AUTO 28016KT 9999 BKN017 OVC039 11/08 Q1010 W (280°) 18.4mph 11°C 8°C
13/01/19 14:50 EGGW 131450Z AUTO 27017KT 9999 OVC013 10/08 Q1010 W (270°) 19.6mph 10°C 8°C
13/01/19 14:20 EGGW 131420Z AUTO 27020KT 9999 BKN013 OVC023 10/08 Q1010 W (270°) 23.0mph 10°C 8°C
13/01/19 13:50 EGGW 131350Z AUTO 26020KT 9999 SCT010 BKN014 OVC020 10/08 Q1010 W (260°) 23.0mph 10°C 8°C
13/01/19 13:20 EGGW 131320Z AUTO 26020G30KT 9999 BKN010 OVC021 10/08 Q1010 W (260°) 23.0mph 34.5mph 10°C 8°C
13/01/19 12:50 EGGW 131250Z AUTO 27020KT 9999 BKN011 OVC019 10/07 Q1011 W (270°) 23.0mph 10°C 7°C
13/01/19 12:20 EGGW 131220Z AUTO 27022KT 9999 BKN013 OVC019 10/07 Q1011 W (270°) 25.3mph 10°C 7°C
13/01/19 11:50 EGGW 131150Z AUTO 28023KT 9999 BKN017 10/07 Q1012 W (280°) 26.5mph 10°C 7°C
13/01/19 11:20 EGGW 131120Z AUTO 28025KT 9999 SCT017 10/06 Q1012 W (280°) 28.8mph 10°C 6°C
13/01/19 10:50 EGGW 131050Z AUTO 28023KT 9999 NCD 09/06 Q1012 W (280°) 26.5mph 9°C 6°C
13/01/19 10:20 EGGW 131020Z AUTO 28021KT 9999 FEW019 09/06 Q1012 W (280°) 24.2mph 9°C 6°C
13/01/19 09:50 EGGW 130950Z AUTO 28019KT 9999 NCD 09/06 Q1013 W (280°) 21.9mph 9°C 6°C
13/01/19 08:50 EGGW 130850Z AUTO 28017KT 9999 //////TCU 09/06 Q1013 W (280°) 19.6mph 9°C 6°C
13/01/19 08:20 EGGW 130820Z AUTO 28013KT 9999 FEW023 09/06 Q1014 W (280°) 15.0mph 9°C 6°C
13/01/19 07:50 EGGW 130750Z AUTO 27018KT 9999 NCD 10/06 Q1013 W (270°) 20.7mph 10°C 6°C
13/01/19 07:20 EGGW 130720Z AUTO 28013KT 9999 SCT021 10/07 Q1014 W (280°) 15.0mph 10°C 7°C
13/01/19 06:50 EGGW 130650Z AUTO 28014KT 9999 SCT019 10/07 Q1014 W (280°) 16.1mph 10°C 7°C
13/01/19 06:20 EGGW 130620Z AUTO 28017KT 9999 FEW021 10/07 Q1014 W (280°) 19.6mph 10°C 7°C
13/01/19 05:20 EGGW 130520Z AUTO 28017KT 9999 SCT016 10/07 Q1014 W (280°) 19.6mph 10°C 7°C
13/01/19 04:50 EGGW 130450Z AUTO 28018KT 9999 FEW017 10/07 Q1014 W (280°) 20.7mph 10°C 7°C
13/01/19 04:20 EGGW 130420Z AUTO 28019KT 9999 BKN016 10/07 Q1014 W (280°) 21.9mph 10°C 7°C
13/01/19 03:20 EGGW 130320Z AUTO 28017KT 9999 FEW018 10/07 Q1015 W (280°) 19.6mph 10°C 7°C
13/01/19 02:50 EGGW 130250Z AUTO 29020KT 9999 SCT015 10/07 Q1015 WNW (290°) 23.0mph 10°C 7°C
13/01/19 02:20 EGGW 130220Z AUTO 28021KT 9999 FEW019 10/07 Q1016 W (280°) 24.2mph 10°C 7°C
13/01/19 01:20 EGGW 130120Z AUTO 29016KT 9999 SCT026 09/07 Q1016 WNW (290°) 18.4mph 9°C 7°C
13/01/19 00:50 EGGW 130050Z AUTO 29019KT 9999 SCT018 OVC023 10/07 Q1017 WNW (290°) 21.9mph 10°C 7°C
13/01/19 00:20 EGGW 130020Z AUTO 29017KT 9999 OVC025 10/07 Q1017 WNW (290°) 19.6mph 10°C 7°C
12/01/19 23:50 EGGW 122350Z AUTO 29017KT 9999 OVC022 10/07 Q1017 WNW (290°) 19.6mph 10°C 7°C
12/01/19 23:20 EGGW 122320Z AUTO 29018KT 9999 OVC022 09/07 Q1017 WNW (290°) 20.7mph 9°C 7°C
12/01/19 22:50 EGGW 122250Z AUTO 29021G32KT 9999 OVC022 09/07 Q1017 WNW (290°) 24.2mph 36.8mph 9°C 7°C
12/01/19 22:20 EGGW 122220Z AUTO 29021KT 9999 OVC022 09/07 Q1017 WNW (290°) 24.2mph 9°C 7°C
12/01/19 21:50 EGGW 122150Z AUTO 28018KT 9999 OVC021 09/07 Q1017 W (280°) 20.7mph 9°C 7°C
12/01/19 21:20 EGGW 122120Z AUTO 29019KT 9999 OVC016 09/07 Q1017 WNW (290°) 21.9mph 9°C 7°C
12/01/19 20:50 EGGW 122050Z AUTO 29019KT 9999 -RA OVC016 09/07 Q1018 -RA WNW (290°) 21.9mph 9°C 7°C
12/01/19 20:20 EGGW 122020Z AUTO 28017KT 9999 -RA OVC017 08/06 Q1018 -RA W (280°) 19.6mph 8°C 6°C
12/01/19 19:50 EGGW 121950Z AUTO 28016KT 9999 -RA OVC018 08/06 Q1018 -RA W (280°) 18.4mph 8°C 6°C